Time;durP1;ratioP1;P1;durP2;ratioP2;P2;SDS_P1;SDS_P2;PMS_P1;PMS_P2;Temp;Humidity;BMP_temperature;BMP_pressure;BME280_temperature;BME280_humidity;BME280_pressure;Samples;Min_cycle;Max_cycle;Signal;HPM_P1;HPM_P2
2022/11/21 00:01:13;;;;;;;5.07;4.77;;;;;;;1.59;100.00;96067.13;4990681;28;20219;-70
2022/11/21 00:03:40;;;;;;;4.53;4.20;;;;;;;1.59;100.00;96059.28;5010674;28;20501;-71
2022/11/21 00:06:08;;;;;;;4.80;4.40;;;;;;;1.55;100.00;96058.78;5010539;28;20259;-71
2022/11/21 00:08:37;;;;;;;5.07;4.67;;;;;;;1.57;100.00;96062.06;4992430;28;20212;-72
2022/11/21 00:11:04;;;;;;;5.30;4.80;;;;;;;1.64;100.00;96069.28;4968947;28;20216;-71
2022/11/21 00:13:32;;;;;;;5.00;4.70;;;;;;;1.65;100.00;96061.28;5011938;28;20422;-70
2022/11/21 00:16:03;;;;;;;5.70;4.60;;;;;;;1.67;100.00;96067.16;4957406;28;20408;-69
2022/11/21 00:18:30;;;;;;;5.00;4.70;;;;;;;1.66;100.00;96065.50;5010208;28;20243;-71
2022/11/21 00:21:04;;;;;;;5.27;4.87;;;;;;;1.68;100.00;96060.16;5010663;28;20205;-70
2022/11/21 00:23:31;;;;;;;4.87;4.57;;;;;;;1.70;100.00;96050.38;5010021;28;20619;-71
2022/11/21 00:26:03;;;;;;;5.53;5.13;;;;;;;1.70;100.00;96051.16;5013679;28;20746;-69
2022/11/21 00:28:31;;;;;;;5.00;4.70;;;;;;;1.68;100.00;96042.69;5015230;28;20207;-70
2022/11/21 00:30:59;;;;;;;5.50;5.10;;;;;;;1.72;100.00;96053.63;4965721;28;20728;-70
2022/11/21 00:33:26;;;;;;;5.43;5.03;;;;;;;1.75;100.00;96057.75;5008322;28;20231;-70
2022/11/21 00:35:54;;;;;;;5.93;5.43;;;;;;;1.78;100.00;96058.22;5011110;28;20707;-68
2022/11/21 00:38:23;;;;;;;5.27;4.97;;;;;;;1.80;100.00;96055.47;5009841;28;20493;-72
2022/11/21 00:40:50;;;;;;;5.27;4.87;;;;;;;1.81;100.00;96054.50;5009457;28;20223;-71
2022/11/21 00:43:19;;;;;;;5.30;4.90;;;;;;;1.88;100.00;96063.34;5004377;28;20831;-71
2022/11/21 00:45:47;;;;;;;5.53;5.13;;;;;;;1.92;100.00;96058.63;4963204;28;20263;-69
2022/11/21 00:48:14;;;;;;;4.73;4.43;;;;;;;1.95;100.00;96055.72;5012232;28;20434;-71
2022/11/21 00:50:42;;;;;;;4.17;3.87;;;;;;;1.98;100.00;96053.56;5010479;28;20239;-69
2022/11/21 00:53:10;;;;;;;4.57;4.27;;;;;;;2.01;100.00;96060.28;5008707;28;20204;-69
2022/11/21 00:55:37;;;;;;;4.60;4.30;;;;;;;2.01;100.00;96052.47;5010869;28;20224;-70
2022/11/21 00:58:05;;;;;;;4.10;3.80;;;;;;;2.03;100.00;96055.72;5009036;28;20494;-69
2022/11/21 01:00:34;;;;;;;3.97;3.77;;;;;;;2.04;100.00;96057.38;4967326;28;20549;-70
2022/11/21 01:03:01;;;;;;;4.00;3.60;;;;;;;2.06;100.00;96062.41;5009111;28;20208;-69
2022/11/21 01:05:31;;;;;;;3.67;3.37;;;;;;;2.06;100.00;96055.41;5012859;28;20762;-69
2022/11/21 01:07:59;;;;;;;3.33;3.23;;;;;;;2.07;100.00;96061.44;5011070;28;20222;-68
2022/11/21 01:10:27;;;;;;;3.40;3.20;;;;;;;2.08;100.00;96052.63;5014060;28;20209;-69
2022/11/21 01:12:54;;;;;;;3.57;3.27;;;;;;;2.13;100.00;96045.97;5014988;28;20204;-68
2022/11/21 01:15:22;;;;;;;3.63;3.43;;;;;;;2.15;100.00;96058.88;4945665;28;20680;-68
2022/11/21 01:17:51;;;;;;;3.40;3.17;;;;;;;2.16;100.00;96045.63;4999818;28;20794;-69
2022/11/21 01:20:19;;;;;;;3.53;3.33;;;;;;;2.17;100.00;96043.84;5006778;28;20231;-69
2022/11/21 01:22:46;;;;;;;3.57;3.37;;;;;;;2.18;100.00;96058.56;4997345;28;20315;-71
2022/11/21 01:25:14;;;;;;;3.70;3.40;;;;;;;2.20;100.00;96040.91;5007782;28;20231;-69
2022/11/21 01:27:42;;;;;;;3.97;3.60;;;;;;;2.18;100.00;96048.09;5010385;28;20204;-70
2022/11/21 01:30:10;;;;;;;3.37;3.17;;;;;;;2.19;100.00;96046.28;5014688;28;20498;-70
2022/11/21 01:32:38;;;;;;;3.13;2.90;;;;;;;2.18;100.00;96048.09;4961019;28;20468;-69
2022/11/21 01:35:08;;;;;;;3.23;3.03;;;;;;;2.22;100.00;96051.19;5015220;28;20208;-71
2022/11/21 01:37:36;;;;;;;3.20;3.00;;;;;;;2.23;100.00;96048.44;4989649;28;20228;-71
2022/11/21 01:40:04;;;;;;;3.03;2.83;;;;;;;2.24;100.00;96047.47;5012491;28;20208;-71
2022/11/21 01:42:44;;;;;;;3.27;3.07;;;;;;;2.22;100.00;96038.13;5011487;28;20433;-69
2022/11/21 01:45:45;;;;;;;4.00;2.90;;;;;;;2.26;100.00;96053.34;5009946;28;20243;-71
2022/11/21 01:48:13;;;;;;;2.50;2.40;;;;;;;2.24;100.00;96044.84;4960742;28;20216;-69
2022/11/21 01:50:42;;;;;;;2.93;2.73;;;;;;;2.28;100.00;96040.94;5006901;28;20235;-70
2022/11/21 01:53:10;;;;;;;4.07;2.80;;;;;;;2.30;100.00;96040.78;4991902;28;20211;-69
2022/11/21 01:55:37;;;;;;;3.00;2.70;;;;;;;2.30;100.00;96036.38;5007324;28;20334;-69
2022/11/21 01:58:05;;;;;;;2.77;2.67;;;;;;;2.31;100.00;96030.16;4985365;28;20213;-71
2022/11/21 02:00:37;;;;;;;2.50;2.40;;;;;;;2.36;100.00;96029.69;5011071;28;20234;-70
2022/11/21 02:03:07;;;;;;;3.20;3.00;;;;;;;2.35;100.00;96022.00;4963035;28;20517;-71
2022/11/21 02:05:37;;;;;;;4.63;2.73;;;;;;;2.38;100.00;96029.50;5007246;28;20240;-70
2022/11/21 02:08:09;;;;;;;2.57;2.43;;;;;;;2.39;100.00;96025.91;4989833;28;20663;-70
2022/11/21 02:10:38;;;;;;;3.67;3.00;;;;;;;2.37;100.00;96035.72;5011041;28;20254;-70
2022/11/21 02:13:06;;;;;;;6.20;2.57;;;;;;;2.33;100.00;96034.41;5010395;28;20223;-70
2022/11/21 02:15:33;;;;;;;2.80;2.60;;;;;;;2.27;100.00;96031.47;5008406;28;22080;-69
2022/11/21 02:18:02;;;;;;;2.50;2.30;;;;;;;2.22;100.00;96027.69;4966880;28;20215;-69
2022/11/21 02:20:30;;;;;;;3.50;2.63;;;;;;;2.13;100.00;96013.78;4958823;28;20897;-69
2022/11/21 02:23:02;;;;;;;4.13;3.73;;;;;;;2.06;100.00;96018.00;4982668;28;20208;-68
2022/11/21 02:25:34;;;;;;;3.70;3.00;;;;;;;2.11;100.00;96024.41;5000700;28;20235;-70
2022/11/21 02:28:04;;;;;;;4.07;2.50;;;;;;;2.14;100.00;96031.09;5008253;28;20207;-68
2022/11/21 02:30:32;;;;;;;4.10;2.53;;;;;;;2.16;100.00;96026.53;5010492;28;20214;-71
2022/11/21 02:33:00;;;;;;;2.87;2.70;;;;;;;2.15;100.00;96027.53;5004067;28;20212;-68
2022/11/21 02:35:28;;;;;;;2.67;2.50;;;;;;;2.15;100.00;96010.03;5011162;28;20211;-71
2022/11/21 02:38:07;;;;;;;4.40;2.70;;;;;;;2.16;100.00;96013.47;4982379;28;20204;-68
2022/11/21 02:40:40;;;;;;;2.50;2.37;;;;;;;2.15;100.00;96009.22;5013537;28;20216;-70
2022/11/21 02:43:10;;;;;;;2.80;2.60;;;;;;;2.13;100.00;96009.38;5005550;28;20808;-70
2022/11/21 02:45:40;;;;;;;5.00;2.50;;;;;;;2.14;100.00;96004.97;5009175;28;20236;-70
2022/11/21 02:48:08;;;;;;;2.50;2.40;;;;;;;2.13;100.00;95998.91;5007757;28;20204;-70
2022/11/21 02:50:37;;;;;;;3.23;2.57;;;;;;;2.18;100.00;96006.28;5010012;28;20209;-71
2022/11/21 02:53:06;;;;;;;2.87;2.63;;;;;;;2.12;100.00;95999.09;5014157;28;20204;-69
2022/11/21 02:55:34;;;;;;;2.53;2.33;;;;;;;2.15;100.00;96002.19;4967265;28;20236;-69
2022/11/21 02:58:03;;;;;;;4.73;2.43;;;;;;;2.15;100.00;96001.38;5012551;28;20271;-68
2022/11/21 03:00:33;;;;;;;2.90;2.50;;;;;;;2.14;100.00;95999.75;5007666;28;20227;-69
2022/11/21 03:03:00;;;;;;;3.10;2.53;;;;;;;2.12;100.00;96005.13;5009384;28;20207;-70
2022/11/21 03:05:28;;;;;;;2.30;2.20;;;;;;;2.13;100.00;95998.13;5007791;28;20343;-70
2022/11/21 03:07:56;;;;;;;2.70;2.50;;;;;;;2.11;100.00;96000.88;5004191;28;20691;-70
2022/11/21 03:10:23;;;;;;;3.53;2.53;;;;;;;2.12;100.00;95999.91;4961478;28;21000;-69
2022/11/21 03:12:59;;;;;;;4.50;2.50;;;;;;;2.13;100.00;96006.75;5013202;28;20254;-68
2022/11/21 03:15:29;;;;;;;2.90;2.70;;;;;;;2.16;100.00;96009.06;4985480;28;20211;-68
2022/11/21 03:17:57;;;;;;;2.50;2.40;;;;;;;2.21;100.00;96000.75;5005758;28;20202;-69
2022/11/21 03:20:25;;;;;;;2.53;2.33;;;;;;;2.22;100.00;96005.00;5011655;28;20619;-68
2022/11/21 03:22:53;;;;;;;2.40;2.30;;;;;;;2.21;100.00;96005.97;5008240;28;20207;-69
2022/11/21 03:25:24;;;;;;;3.87;2.50;;;;;;;2.23;100.00;96003.19;4994300;28;20200;-70
2022/11/21 03:27:53;;;;;;;2.40;2.30;;;;;;;2.25;100.00;96001.22;4993585;28;20946;-70
2022/11/21 03:30:21;;;;;;;2.63;2.53;;;;;;;2.22;100.00;95994.53;5006051;28;20251;-67
2022/11/21 03:32:50;;;;;;;3.23;2.87;;;;;;;2.30;100.00;95993.75;5009309;28;20494;-70
2022/11/21 03:35:17;;;;;;;2.53;2.33;;;;;;;2.28;100.00;95983.44;5011532;28;20204;-67
2022/11/21 03:37:47;;;;;;;2.67;2.57;;;;;;;2.31;100.00;95990.16;5004825;28;20414;-70
2022/11/21 03:40:18;;;;;;;2.50;2.40;;;;;;;2.33;100.00;95987.34;5012079;28;20213;-70
2022/11/21 03:42:48;;;;;;;3.27;2.97;;;;;;;2.35;100.00;95983.59;4983709;28;20309;-73
2022/11/21 03:45:15;;;;;;;3.10;2.87;;;;;;;2.34;100.00;95971.53;5008034;28;20200;-67
2022/11/21 03:47:43;;;;;;;3.13;2.60;;;;;;;2.34;100.00;95974.13;5008707;28;20227;-70
2022/11/21 03:50:14;;;;;;;3.37;3.17;;;;;;;2.34;100.00;95978.53;5008737;28;20211;-72
2022/11/21 03:52:41;;;;;;;4.40;3.20;;;;;;;2.36;100.00;95971.34;4987436;28;20235;-71
2022/11/21 03:55:09;;;;;;;2.80;2.70;;;;;;;2.37;100.00;95972.97;5013379;28;20451;-69
2022/11/21 03:57:37;;;;;;;3.40;3.00;;;;;;;2.37;100.00;95970.38;4963695;28;20232;-71
2022/11/21 04:00:05;;;;;;;3.13;2.93;;;;;;;2.36;100.00;95961.72;5010462;28;20501;-70
2022/11/21 04:02:32;;;;;;;4.70;2.97;;;;;;;2.37;100.00;95971.19;4993039;28;20215;-69
2022/11/21 04:05:00;;;;;;;3.27;3.00;;;;;;;2.38;100.00;95959.75;5014939;28;20237;-70
2022/11/21 04:07:29;;;;;;;4.03;2.83;;;;;;;2.37;100.00;95962.53;5009305;28;20240;-69
2022/11/21 04:09:57;;;;;;;2.77;2.57;;;;;;;2.35;100.00;95961.88;5017525;28;20303;-72
2022/11/21 04:12:24;;;;;;;2.63;2.53;;;;;;;2.33;100.00;95966.44;4964966;28;20393;-70
2022/11/21 04:14:52;;;;;;;2.63;2.50;;;;;;;2.34;100.00;95968.06;5011834;28;20344;-71
2022/11/21 04:17:19;;;;;;;2.73;2.63;;;;;;;2.34;100.00;95970.69;4993433;28;20227;-70
2022/11/21 04:19:47;;;;;;;2.47;2.33;;;;;;;2.34;100.00;95968.91;5014118;28;20441;-72
2022/11/21 04:22:14;;;;;;;2.37;2.17;;;;;;;2.38;100.00;95974.59;5012166;28;20205;-71
2022/11/21 04:24:43;;;;;;;2.57;2.37;;;;;;;2.51;100.00;95961.88;5008326;28;20200;-69
2022/11/21 04:27:11;;;;;;;1.87;1.80;;;;;;;2.50;100.00;95968.09;5010091;28;20239;-72
2022/11/21 04:29:39;;;;;;;2.13;2.03;;;;;;;2.46;100.00;95975.44;4959481;28;20910;-70
2022/11/21 04:32:06;;;;;;;3.23;1.73;;;;;;;2.44;100.00;95971.34;4941798;28;20216;-70
2022/11/21 04:34:34;;;;;;;2.97;2.20;;;;;;;2.44;100.00;95981.81;5008873;28;20793;-71
2022/11/21 04:37:02;;;;;;;2.10;1.83;;;;;;;2.46;100.00;95972.81;5003513;28;20220;-70
2022/11/21 04:39:36;;;;;;;4.40;2.40;;;;;;;2.43;100.00;95973.16;5001670;28;20302;-71
2022/11/21 04:42:05;;;;;;;4.07;2.00;;;;;;;2.47;100.00;95968.44;5010358;28;20453;-69
2022/11/21 04:44:33;;;;;;;2.20;2.00;;;;;;;2.45;100.00;95971.19;4991764;28;20208;-71
2022/11/21 04:47:01;;;;;;;2.00;1.90;;;;;;;2.45;100.00;95955.50;4967575;28;20236;-70
2022/11/21 04:49:32;;;;;;;1.87;1.60;;;;;;;2.45;100.00;95952.88;5009185;28;20435;-73
2022/11/21 04:51:59;;;;;;;2.53;2.17;;;;;;;2.44;100.00;95946.03;4964574;28;20208;-71
2022/11/21 04:54:27;;;;;;;3.13;1.60;;;;;;;2.42;100.00;95942.75;4991065;28;20522;-69
2022/11/21 04:56:55;;;;;;;2.50;1.93;;;;;;;2.42;100.00;95937.53;5011662;28;20347;-72
2022/11/21 04:59:25;;;;;;;2.00;1.80;;;;;;;2.38;100.00;95930.16;4978307;28;20243;-70
2022/11/21 05:01:52;;;;;;;1.87;1.63;;;;;;;2.43;100.00;95947.00;4953115;28;20331;-71
2022/11/21 05:04:20;;;;;;;3.63;2.20;;;;;;;2.42;100.00;95941.94;5011018;28;20204;-70
2022/11/21 05:06:47;;;;;;;1.53;1.53;;;;;;;2.50;100.00;95935.88;5008401;28;20462;-71
2022/11/21 05:09:15;;;;;;;2.13;2.03;;;;;;;2.44;100.00;95927.72;4975485;28;20722;-70
2022/11/21 05:14:29;;;;;;;2.27;2.00;;;;;;;2.31;100.00;95928.22;4989122;28;20521;-72
2022/11/21 05:16:57;;;;;;;1.77;1.67;;;;;;;2.29;100.00;95929.38;4947858;28;20229;-71
2022/11/21 05:19:24;;;;;;;3.70;2.00;;;;;;;2.15;100.00;95931.63;5009107;28;20200;-69
2022/11/21 05:21:52;;;;;;;3.03;2.67;;;;;;;2.05;100.00;95935.38;5007955;28;20208;-71
2022/11/21 05:24:20;;;;;;;3.37;1.67;;;;;;;1.97;100.00;95929.16;4976502;28;20219;-70
2022/11/21 05:26:47;;;;;;;2.67;1.90;;;;;;;1.95;100.00;95932.91;5009394;28;20321;-70
2022/11/21 05:29:15;;;;;;;1.93;1.83;;;;;;;1.94;100.00;95944.34;5008428;28;20209;-70
2022/11/21 05:31:44;;;;;;;1.53;1.43;;;;;;;1.92;100.00;95946.31;4987843;28;20224;-71
2022/11/21 05:34:11;;;;;;;2.40;2.07;;;;;;;1.99;100.00;95937.66;4959031;28;20239;-70
2022/11/21 05:36:39;;;;;;;3.27;2.07;;;;;;;1.98;100.00;95932.59;5008621;28;20239;-71
2022/11/21 05:39:07;;;;;;;2.00;1.90;;;;;;;1.96;100.00;95934.56;4993198;28;20200;-70
2022/11/21 05:41:34;;;;;;;2.10;2.00;;;;;;;2.00;100.00;95941.09;4985735;28;20212;-70
2022/11/21 05:44:01;;;;;;;4.40;3.10;;;;;;;2.03;100.00;95933.72;5011255;28;20726;-72
2022/11/21 05:46:29;;;;;;;2.10;1.70;;;;;;;2.03;100.00;95935.53;5012136;28;20251;-70
2022/11/21 05:48:58;;;;;;;2.07;1.90;;;;;;;2.05;100.00;95935.38;4964119;28;20224;-71
2022/11/21 05:51:25;;;;;;;3.33;2.20;;;;;;;2.07;100.00;95925.56;5010727;28;20409;-70
2022/11/21 05:53:53;;;;;;;3.97;2.07;;;;;;;2.09;100.00;95926.25;4994459;28;20418;-70
2022/11/21 05:56:20;;;;;;;1.93;1.83;;;;;;;2.13;100.00;95935.41;4989626;28;20239;-69
2022/11/21 05:58:48;;;;;;;2.00;1.90;;;;;;;2.14;100.00;95931.81;5009289;28;20262;-70
2022/11/21 06:03:25;;;;;;;2.00;1.87;;;;;;;2.13;100.00;95925.75;5006914;28;20200;-70
2022/11/21 06:04:04;;;;;;;2.10;2.00;;;;;;;2.14;100.00;95931.81;4965053;28;20224;-72
2022/11/21 06:06:31;;;;;;;2.13;2.03;;;;;;;2.15;100.00;95931.63;5006112;28;20232;-71
2022/11/21 06:08:59;;;;;;;1.80;1.70;;;;;;;2.15;100.00;95923.00;4989641;28;20466;-72
2022/11/21 06:11:27;;;;;;;2.17;2.07;;;;;;;2.21;100.00;95931.97;4991572;28;20211;-71
2022/11/21 06:13:55;;;;;;;2.43;2.03;;;;;;;2.22;100.00;95936.19;5013600;28;20204;-72
2022/11/21 06:16:22;;;;;;;1.70;1.60;;;;;;;2.19;100.00;95915.63;4984587;28;20823;-71
2022/11/21 06:18:52;;;;;;;1.80;1.67;;;;;;;2.22;100.00;95918.75;5016704;28;20214;-72
2022/11/21 06:21:28;;;;;;;2.00;1.90;;;;;;;2.12;100.00;95910.25;4970947;28;20591;-71
2022/11/21 06:23:57;;;;;;;1.60;1.60;;;;;;;2.04;100.00;95911.03;4998124;28;20218;-72
2022/11/21 06:26:25;;;;;;;1.87;1.77;;;;;;;1.99;100.00;95914.13;4977744;28;20430;-70
2022/11/21 06:28:54;;;;;;;1.87;1.77;;;;;;;1.92;100.00;95922.78;5011034;28;20228;-71
2022/11/21 06:31:23;;;;;;;1.80;1.70;;;;;;;1.86;100.00;95927.66;5004117;28;20205;-71
2022/11/21 06:33:52;;;;;;;2.87;1.53;;;;;;;1.83;100.00;95929.78;5006130;28;20374;-71
2022/11/21 06:36:20;;;;;;;1.83;1.73;;;;;;;1.83;100.00;95940.25;4962428;28;20426;-71
2022/11/21 06:38:54;;;;;;;2.03;1.70;;;;;;;1.77;100.00;95933.03;4955517;28;20231;-72
2022/11/21 06:41:22;;;;;;;1.83;1.60;;;;;;;1.85;100.00;95930.44;5008290;28;20216;-71
2022/11/21 06:43:50;;;;;;;3.70;2.10;;;;;;;1.92;100.00;95943.69;5009875;28;20211;-69
2022/11/21 06:46:18;;;;;;;1.80;1.80;;;;;;;1.93;100.00;95940.91;5015081;28;20297;-72
2022/11/21 06:48:45;;;;;;;1.83;1.73;;;;;;;1.98;100.00;95946.47;4987096;28;20228;-69
2022/11/21 06:51:16;;;;;;;2.97;2.00;;;;;;;2.05;100.00;95948.44;5010575;28;20239;-72
2022/11/21 06:53:44;;;;;;;1.93;1.83;;;;;;;2.07;100.00;95947.31;4997414;28;20204;-70
2022/11/21 06:56:14;;;;;;;1.47;1.37;;;;;;;2.13;100.00;95956.31;4962161;28;20228;-72
2022/11/21 06:58:42;;;;;;;1.83;1.73;;;;;;;2.14;100.00;95960.56;5004834;28;20204;-72
2022/11/21 07:01:10;;;;;;;1.93;1.83;;;;;;;2.12;100.00;95960.69;5007313;28;20203;-72
2022/11/21 07:03:38;;;;;;;1.43;1.40;;;;;;;2.17;100.00;95955.81;5008453;28;20283;-73
2022/11/21 07:06:06;;;;;;;1.30;1.30;;;;;;;2.15;100.00;95967.41;5007762;28;20465;-71
2022/11/21 07:08:35;;;;;;;2.00;1.90;;;;;;;2.16;100.00;95977.69;5009862;28;20591;-72
2022/11/21 07:11:05;;;;;;;2.20;2.00;;;;;;;2.20;100.00;95970.34;4948643;28;20845;-72
2022/11/21 07:13:54;;;;;;;2.03;1.60;;;;;;;2.22;100.00;95975.41;5006852;28;20372;-72
2022/11/21 07:16:24;;;;;;;1.67;1.60;;;;;;;2.21;100.00;95981.63;4999336;28;20235;-72
2022/11/21 07:18:52;;;;;;;1.87;1.77;;;;;;;2.20;100.00;95974.75;5006184;28;20604;-71
2022/11/21 07:21:19;;;;;;;1.30;1.30;;;;;;;2.19;100.00;95973.94;5008135;28;20209;-72
2022/11/21 07:23:47;;;;;;;1.60;1.50;;;;;;;2.19;100.00;95976.56;5011732;28;20219;-72
2022/11/21 07:26:15;;;;;;;2.20;2.00;;;;;;;2.21;100.00;95973.78;4996951;28;20322;-72
2022/11/21 07:28:43;;;;;;;1.43;1.33;;;;;;;2.19;100.00;95971.34;4967205;28;20267;-72
2022/11/21 07:31:12;;;;;;;1.50;1.50;;;;;;;2.30;100.00;95978.06;5011092;28;20934;-71
2022/11/21 07:33:42;;;;;;;1.70;1.50;;;;;;;2.25;100.00;95972.47;4993185;28;20227;-72
2022/11/21 07:36:09;;;;;;;1.80;1.70;;;;;;;2.21;100.00;95972.00;5009747;28;20227;-73
2022/11/21 07:38:37;;;;;;;1.60;1.60;;;;;;;2.19;100.00;95983.56;5011319;28;20204;-71
2022/11/21 07:41:05;;;;;;;2.00;1.87;;;;;;;2.24;100.00;95978.69;4997360;28;20211;-73
2022/11/21 07:43:32;;;;;;;1.90;1.57;;;;;;;2.26;100.00;95981.94;4971487;28;20208;-71
2022/11/21 07:46:00;;;;;;;1.70;1.70;;;;;;;2.26;100.00;95993.22;5012097;28;20315;-72
2022/11/21 07:48:29;;;;;;;1.80;1.70;;;;;;;2.34;100.00;95986.38;4988951;28;20232;-70
2022/11/21 07:50:56;;;;;;;2.73;1.70;;;;;;;2.39;100.00;95989.31;5012095;28;20487;-71
2022/11/21 07:53:24;;;;;;;2.43;1.63;;;;;;;2.42;100.00;95983.75;5014706;28;20226;-71
2022/11/21 07:55:52;;;;;;;2.00;1.90;;;;;;;2.51;100.00;95992.44;4996043;28;20727;-71
2022/11/21 07:58:19;;;;;;;2.10;2.00;;;;;;;2.51;100.00;95989.81;5013615;28;20211;-70
2022/11/21 08:00:47;;;;;;;2.10;1.90;;;;;;;2.48;100.00;95987.53;4970406;28;20528;-70
2022/11/21 08:03:14;;;;;;;1.70;1.70;;;;;;;2.58;100.00;95990.78;5015058;28;20231;-71
2022/11/21 08:05:44;;;;;;;2.23;2.13;;;;;;;2.65;100.00;95999.66;4993569;28;20469;-69
2022/11/21 08:08:13;;;;;;;1.87;1.80;;;;;;;2.71;100.00;95991.16;5016122;28;20209;-69
2022/11/21 08:10:42;;;;;;;1.93;1.60;;;;;;;2.84;100.00;95993.28;4988071;28;20212;-69
2022/11/21 08:13:10;;;;;;;2.80;1.70;;;;;;;3.03;100.00;95988.66;5012649;28;20714;-70
2022/11/21 08:15:37;;;;;;;1.67;1.60;;;;;;;3.24;100.00;95976.84;4961240;28;20653;-70
2022/11/21 08:18:09;;;;;;;1.90;1.80;;;;;;;3.28;100.00;95978.94;5006134;28;20204;-70
2022/11/21 08:20:37;;;;;;;2.07;1.30;;;;;;;3.39;100.00;95975.16;4983236;28;20212;-71
2022/11/21 08:23:07;;;;;;;1.27;1.27;;;;;;;3.35;100.00;95966.00;5018670;28;20216;-71
2022/11/21 08:25:36;;;;;;;2.07;1.90;;;;;;;3.41;100.00;95975.81;5011287;28;20494;-72
2022/11/21 08:28:05;;;;;;;1.50;1.40;;;;;;;3.32;100.00;95972.38;4996918;28;20587;-71
2022/11/21 08:30:33;;;;;;;1.57;1.47;;;;;;;3.45;100.00;95973.69;4964985;28;20224;-71
2022/11/21 08:33:01;;;;;;;2.10;1.90;;;;;;;3.39;100.00;95984.81;5011638;28;20209;-72
2022/11/21 08:35:30;;;;;;;1.27;1.27;;;;;;;3.27;100.00;95973.91;4990494;28;20204;-72
2022/11/21 08:37:58;;;;;;;1.50;1.40;;;;;;;3.42;100.00;95977.44;5015010;28;20200;-71
2022/11/21 08:40:29;;;;;;;1.57;1.47;;;;;;;3.71;100.00;95981.28;5009907;28;20718;-71
2022/11/21 08:42:57;;;;;;;1.50;1.40;;;;;;;3.99;100.00;95975.56;4993782;28;20462;-71
2022/11/21 08:45:25;;;;;;;1.93;1.80;;;;;;;4.10;100.00;95979.59;4969543;28;20220;-71
2022/11/21 08:47:53;;;;;;;1.30;1.30;;;;;;;3.97;100.00;95982.78;4954052;28;20208;-70
2022/11/21 08:50:21;;;;;;;1.40;1.30;;;;;;;3.99;100.00;95983.44;5014604;28;20549;-71
2022/11/21 08:52:49;;;;;;;1.57;1.57;;;;;;;3.88;100.00;95984.63;5010168;28;20434;-70
2022/11/21 08:55:17;;;;;;;1.90;1.80;;;;;;;3.81;100.00;95981.06;5009379;28;20209;-71
2022/11/21 08:57:45;;;;;;;1.60;1.50;;;;;;;3.78;100.00;95981.38;5011886;28;20200;-70
2022/11/21 09:00:14;;;;;;;2.93;1.60;;;;;;;3.88;100.00;95986.44;5011877;28;20442;-72
2022/11/21 09:02:42;;;;;;;2.30;1.80;;;;;;;4.14;100.00;95987.94;4962751;28;20215;-71
2022/11/21 09:05:10;;;;;;;2.00;1.50;;;;;;;4.46;100.00;95984.28;5018244;28;20216;-73
2022/11/21 09:07:37;;;;;;;1.83;1.63;;;;;;;4.56;100.00;95976.19;5016804;28;20801;-69
2022/11/21 09:10:07;;;;;;;1.70;1.60;;;;;;;4.14;100.00;95978.25;5010012;28;20350;-69
2022/11/21 09:12:34;;;;;;;1.30;1.30;;;;;;;3.84;100.00;95977.28;5009470;28;20201;-70
2022/11/21 09:18:04;;;;;;;1.90;1.80;;;;;;;3.69;100.00;95985.88;4960193;28;20216;-70
2022/11/21 09:20:32;;;;;;;1.67;1.57;;;;;;;3.69;100.00;95988.50;5011800;28;20634;-71
2022/11/21 09:23:04;;;;;;;1.73;1.63;;;;;;;3.89;100.00;95990.69;5007921;28;20204;-70
2022/11/21 09:25:31;;;;;;;1.97;1.40;;;;;;;4.00;100.00;95985.06;5011486;28;20215;-69
2022/11/21 09:27:59;;;;;;;1.60;1.30;;;;;;;4.24;100.00;95985.91;5008873;28;20215;-70
2022/11/21 09:30:28;;;;;;;1.47;1.37;;;;;;;4.23;100.00;95991.34;5009220;28;20841;-70
2022/11/21 09:32:59;;;;;;;1.70;1.63;;;;;;;4.29;100.00;95991.44;4967541;28;20216;-69
2022/11/21 09:35:27;;;;;;;3.13;2.90;;;;;;;4.36;100.00;95996.81;5014646;28;20352;-71
2022/11/21 09:37:55;;;;;;;1.90;1.80;;;;;;;4.47;100.00;95992.97;4991195;28;20208;-70
2022/11/21 09:40:23;;;;;;;1.60;1.50;;;;;;;4.45;100.00;95990.50;5009614;28;20412;-71
2022/11/21 09:43:02;;;;;;;3.80;1.63;;;;;;;4.67;100.00;95995.13;5010709;28;20208;-70
2022/11/21 09:45:34;;;;;;;2.37;1.70;;;;;;;4.68;100.00;95988.88;5009883;28;20204;-71
2022/11/21 09:48:04;;;;;;;3.03;1.80;;;;;;;4.66;100.00;95989.06;4957193;28;20216;-71
2022/11/21 09:50:34;;;;;;;4.47;2.93;;;;;;;4.56;100.00;95988.50;5010783;28;20223;-71
2022/11/21 09:53:06;;;;;;;1.70;1.30;;;;;;;4.49;100.00;95983.13;4992964;28;20204;-70
2022/11/21 09:55:41;;;;;;;2.83;1.70;;;;;;;4.57;100.00;95990.13;5006852;28;20216;-71
2022/11/21 09:58:16;;;;;;;1.27;1.27;;;;;;;4.71;100.00;95980.66;5009671;28;20336;-72
2022/11/21 10:00:45;;;;;;;3.30;1.50;;;;;;;4.87;100.00;95980.53;5010350;28;20734;-70
2022/11/21 10:03:13;;;;;;;2.00;1.73;;;;;;;4.88;100.00;95976.91;4963728;28;20510;-71
2022/11/21 10:05:49;;;;;;;1.80;1.70;;;;;;;4.79;100.00;95975.34;5003626;28;20778;-69
2022/11/21 10:08:26;;;;;;;1.50;1.40;;;;;;;4.63;100.00;95990.22;4991622;28;20680;-71
2022/11/21 10:10:56;;;;;;;2.33;1.50;;;;;;;4.42;100.00;95980.38;5005774;28;20235;-71
2022/11/21 10:13:35;;;;;;;2.10;1.40;;;;;;;4.57;100.00;95987.50;5011530;28;20437;-71
2022/11/21 10:16:09;;;;;;;2.93;1.77;;;;;;;4.60;100.00;95980.09;5010049;28;20532;-71
2022/11/21 10:19:01;;;;;;;1.57;1.47;;;;;;;4.44;100.00;95983.63;4965503;28;20215;-73
2022/11/21 10:21:48;;;;;;;1.10;1.10;;;;;;;4.44;100.00;95970.53;5007275;28;20209;-70
2022/11/21 10:24:25;;;;;;;2.87;1.43;;;;;;;4.63;100.00;95984.97;4991973;28;20227;-71
2022/11/21 10:26:55;;;;;;;3.03;1.60;;;;;;;4.61;100.00;95979.09;5007475;28;20220;-70
2022/11/21 10:29:26;;;;;;;1.27;1.20;;;;;;;4.62;100.00;95972.84;5010772;28;20718;-71
2022/11/21 10:31:57;;;;;;;2.20;2.10;;;;;;;4.71;100.00;95970.97;5005431;28;20679;-70
2022/11/21 10:34:27;;;;;;;2.33;1.53;;;;;;;4.99;100.00;95959.09;4965307;28;20220;-70
2022/11/21 10:36:57;;;;;;;1.33;1.23;;;;;;;4.85;100.00;95964.16;5006071;28;20232;-70
2022/11/21 10:39:32;;;;;;;1.47;1.37;;;;;;;4.87;100.00;95959.53;4991851;28;20212;-70
2022/11/21 10:42:04;;;;;;;1.63;1.47;;;;;;;5.09;100.00;95953.59;5007554;28;20402;-70
2022/11/21 10:47:26;;;;;;;2.03;1.23;;;;;;;5.01;100.00;95949.22;5009656;28;20507;-72
2022/11/21 10:50:12;;;;;;;1.47;1.47;;;;;;;4.85;100.00;95950.19;4961778;28;20580;-70
2022/11/21 10:52:43;;;;;;;1.37;1.27;;;;;;;4.83;100.00;95944.31;5007123;28;20254;-71
2022/11/21 10:55:12;;;;;;;1.40;1.40;;;;;;;4.95;100.00;95949.94;4936633;28;20207;-69
2022/11/21 10:57:44;;;;;;;2.80;2.37;;;;;;;4.89;100.00;95941.78;5006677;28;20761;-71
2022/11/21 11:00:21;;;;;;;2.17;1.70;;;;;;;4.87;100.00;95959.53;4994302;28;20380;-72
2022/11/21 11:03:03;;;;;;;2.00;1.83;;;;;;;4.96;100.00;95956.81;5015622;28;20480;-70
2022/11/21 11:05:32;;;;;;;2.30;1.63;;;;;;;4.99;100.00;95945.97;5007232;28;21168;-70
2022/11/21 11:08:03;;;;;;;3.60;2.00;;;;;;;4.83;100.00;95946.94;5016827;28;20386;-71
2022/11/21 11:10:32;;;;;;;1.73;1.57;;;;;;;4.88;100.00;95945.41;4963601;28;20662;-70
2022/11/21 11:16:07;;;;;;;1.00;1.00;;;;;;;5.16;100.00;95926.44;4992959;28;20302;-70
2022/11/21 11:18:39;;;;;;;1.73;1.63;;;;;;;5.09;100.00;95925.50;5009658;28;20204;-70
2022/11/21 11:21:19;;;;;;;1.97;1.80;;;;;;;5.09;100.00;95922.88;5010407;28;20265;-71
2022/11/21 11:23:48;;;;;;;1.90;1.70;;;;;;;5.13;100.00;95921.56;4964427;28;22293;-71
2022/11/21 11:26:22;;;;;;;2.27;1.70;;;;;;;5.25;100.00;95929.78;5012619;28;20739;-69
2022/11/21 11:28:50;;;;;;;2.43;1.43;;;;;;;4.88;100.00;95921.78;5015825;28;20427;-71
2022/11/21 11:31:18;;;;;;;1.60;1.33;;;;;;;4.89;100.00;95918.16;5003493;28;20220;-71
2022/11/21 11:33:55;;;;;;;2.50;1.40;;;;;;;4.87;100.00;95928.03;5001038;28;20216;-71
2022/11/21 11:36:34;;;;;;;2.40;1.50;;;;;;;5.01;100.00;95931.69;5013057;28;20552;-70
2022/11/21 11:39:13;;;;;;;1.60;1.60;;;;;;;5.18;100.00;95926.25;5014308;28;20204;-71
2022/11/21 11:47:51;;;;;;;1.67;1.47;;;;;;;4.80;100.00;95934.16;4992784;28;20835;-72
2022/11/21 11:50:25;;;;;;;1.20;1.20;;;;;;;4.81;100.00;95926.13;5013795;28;20252;-70
2022/11/21 11:52:59;;;;;;;1.30;1.30;;;;;;;4.49;100.00;95926.22;5014405;28;20228;-71
2022/11/21 11:55:33;;;;;;;1.23;1.23;;;;;;;4.29;100.00;95923.25;4953551;28;20226;-72
2022/11/21 11:58:03;;;;;;;4.33;1.23;;;;;;;4.35;100.00;95921.75;5015938;28;20203;-72
2022/11/21 12:00:39;;;;;;;1.30;1.30;;;;;;;4.15;100.00;95924.84;4989355;28;21072;-72
2022/11/21 12:03:12;;;;;;;1.43;1.33;;;;;;;4.28;100.00;95928.69;5015377;28;20786;-71